sensor_id;sensor_type;location;lat;lon;timestamp;P1;durP1;ratioP1;P2;durP2;ratioP2
21122;SDS011;10719;48.130;11.630;2024-02-04T00:00:23;7.38;;;2.83;;
21122;SDS011;10719;48.130;11.630;2024-02-04T00:02:49;7.20;;;2.67;;
21122;SDS011;10719;48.130;11.630;2024-02-04T00:05:15;7.43;;;2.70;;
21122;SDS011;10719;48.130;11.630;2024-02-04T00:07:41;7.82;;;2.97;;
21122;SDS011;10719;48.130;11.630;2024-02-04T00:10:06;7.82;;;3.03;;
21122;SDS011;10719;48.130;11.630;2024-02-04T00:12:32;6.53;;;2.60;;
21122;SDS011;10719;48.130;11.630;2024-02-04T00:14:58;7.75;;;3.00;;
21122;SDS011;10719;48.130;11.630;2024-02-04T00:17:23;7.55;;;2.70;;
21122;SDS011;10719;48.130;11.630;2024-02-04T00:19:54;7.68;;;2.67;;
21122;SDS011;10719;48.130;11.630;2024-02-04T00:22:21;8.65;;;2.88;;
21122;SDS011;10719;48.130;11.630;2024-02-04T00:24:47;5.78;;;2.45;;
21122;SDS011;10719;48.130;11.630;2024-02-04T00:27:12;7.40;;;3.10;;
21122;SDS011;10719;48.130;11.630;2024-02-04T00:29:38;7.47;;;3.15;;
21122;SDS011;10719;48.130;11.630;2024-02-04T00:32:04;6.53;;;2.90;;
21122;SDS011;10719;48.130;11.630;2024-02-04T00:34:29;7.05;;;2.50;;
21122;SDS011;10719;48.130;11.630;2024-02-04T00:36:55;5.80;;;2.40;;
21122;SDS011;10719;48.130;11.630;2024-02-04T00:39:21;6.35;;;2.60;;
21122;SDS011;10719;48.130;11.630;2024-02-04T00:41:46;7.45;;;2.80;;
21122;SDS011;10719;48.130;11.630;2024-02-04T00:44:12;8.90;;;3.20;;
21122;SDS011;10719;48.130;11.630;2024-02-04T00:46:37;7.13;;;2.75;;
21122;SDS011;10719;48.130;11.630;2024-02-04T00:49:03;9.05;;;3.28;;
21122;SDS011;10719;48.130;11.630;2024-02-04T00:51:29;10.10;;;3.10;;
21122;SDS011;10719;48.130;11.630;2024-02-04T00:53:54;9.93;;;3.67;;
21122;SDS011;10719;48.130;11.630;2024-02-04T00:56:20;6.95;;;2.63;;
21122;SDS011;10719;48.130;11.630;2024-02-04T00:58:45;10.80;;;3.58;;
21122;SDS011;10719;48.130;11.630;2024-02-04T01:01:11;7.30;;;2.95;;
21122;SDS011;10719;48.130;11.630;2024-02-04T01:03:37;8.52;;;3.40;;
21122;SDS011;10719;48.130;11.630;2024-02-04T01:06:03;7.10;;;2.95;;
21122;SDS011;10719;48.130;11.630;2024-02-04T01:08:28;7.60;;;3.03;;
21122;SDS011;10719;48.130;11.630;2024-02-04T01:10:54;9.35;;;3.47;;
21122;SDS011;10719;48.130;11.630;2024-02-04T01:13:20;7.55;;;2.90;;
21122;SDS011;10719;48.130;11.630;2024-02-04T01:15:45;8.63;;;3.35;;
21122;SDS011;10719;48.130;11.630;2024-02-04T01:18:11;10.63;;;3.95;;
21122;SDS011;10719;48.130;11.630;2024-02-04T01:20:37;8.52;;;3.55;;
21122;SDS011;10719;48.130;11.630;2024-02-04T01:23:02;9.57;;;3.83;;
21122;SDS011;10719;48.130;11.630;2024-02-04T01:25:28;8.32;;;3.42;;
21122;SDS011;10719;48.130;11.630;2024-02-04T01:27:53;9.98;;;3.85;;
21122;SDS011;10719;48.130;11.630;2024-02-04T01:30:19;10.85;;;3.97;;
21122;SDS011;10719;48.130;11.630;2024-02-04T01:32:45;9.07;;;4.20;;
21122;SDS011;10719;48.130;11.630;2024-02-04T01:35:11;7.80;;;2.97;;
21122;SDS011;10719;48.130;11.630;2024-02-04T01:37:37;8.35;;;3.15;;
21122;SDS011;10719;48.130;11.630;2024-02-04T01:40:02;11.30;;;3.38;;
21122;SDS011;10719;48.130;11.630;2024-02-04T01:42:30;10.38;;;3.80;;
21122;SDS011;10719;48.130;11.630;2024-02-04T01:44:56;9.38;;;3.80;;
21122;SDS011;10719;48.130;11.630;2024-02-04T01:47:21;9.18;;;3.15;;
21122;SDS011;10719;48.130;11.630;2024-02-04T01:49:48;10.30;;;3.83;;
21122;SDS011;10719;48.130;11.630;2024-02-04T01:52:13;9.45;;;3.55;;
21122;SDS011;10719;48.130;11.630;2024-02-04T01:54:40;8.00;;;3.20;;
21122;SDS011;10719;48.130;11.630;2024-02-04T01:57:08;9.63;;;3.88;;
21122;SDS011;10719;48.130;11.630;2024-02-04T01:59:35;10.07;;;3.50;;
21122;SDS011;10719;48.130;11.630;2024-02-04T02:02:04;9.10;;;3.70;;
21122;SDS011;10719;48.130;11.630;2024-02-04T02:04:30;9.25;;;3.65;;
21122;SDS011;10719;48.130;11.630;2024-02-04T02:06:56;8.57;;;3.78;;
21122;SDS011;10719;48.130;11.630;2024-02-04T02:09:21;10.25;;;3.88;;
21122;SDS011;10719;48.130;11.630;2024-02-04T02:11:50;7.82;;;3.10;;
21122;SDS011;10719;48.130;11.630;2024-02-04T02:14:24;9.05;;;3.40;;
21122;SDS011;10719;48.130;11.630;2024-02-04T02:16:52;9.70;;;3.40;;
21122;SDS011;10719;48.130;11.630;2024-02-04T02:22:15;7.53;;;3.05;;
21122;SDS011;10719;48.130;11.630;2024-02-04T02:24:53;11.50;;;3.35;;
21122;SDS011;10719;48.130;11.630;2024-02-04T02:27:21;7.75;;;3.00;;
21122;SDS011;10719;48.130;11.630;2024-02-04T02:29:47;11.15;;;3.55;;
21122;SDS011;10719;48.130;11.630;2024-02-04T02:32:12;8.18;;;3.03;;
21122;SDS011;10719;48.130;11.630;2024-02-04T02:34:38;7.55;;;3.13;;
21122;SDS011;10719;48.130;11.630;2024-02-04T02:40:23;9.40;;;3.35;;
21122;SDS011;10719;48.130;11.630;2024-02-04T02:42:55;8.63;;;2.90;;
21122;SDS011;10719;48.130;11.630;2024-02-04T02:45:22;8.48;;;3.40;;
21122;SDS011;10719;48.130;11.630;2024-02-04T02:47:50;8.48;;;2.95;;
21122;SDS011;10719;48.130;11.630;2024-02-04T02:50:16;7.95;;;2.83;;
21122;SDS011;10719;48.130;11.630;2024-02-04T02:52:42;8.00;;;3.22;;
21122;SDS011;10719;48.130;11.630;2024-02-04T02:55:08;10.50;;;3.35;;
21122;SDS011;10719;48.130;11.630;2024-02-04T02:57:34;8.23;;;3.15;;
21122;SDS011;10719;48.130;11.630;2024-02-04T02:59:59;7.38;;;3.00;;
21122;SDS011;10719;48.130;11.630;2024-02-04T03:02:25;8.07;;;3.38;;
21122;SDS011;10719;48.130;11.630;2024-02-04T03:04:50;9.05;;;3.55;;
21122;SDS011;10719;48.130;11.630;2024-02-04T03:07:16;8.18;;;3.00;;
21122;SDS011;10719;48.130;11.630;2024-02-04T03:09:41;9.23;;;3.17;;
21122;SDS011;10719;48.130;11.630;2024-02-04T03:12:08;9.20;;;3.00;;
21122;SDS011;10719;48.130;11.630;2024-02-04T03:14:34;8.90;;;3.03;;
21122;SDS011;10719;48.130;11.630;2024-02-04T03:16:59;6.97;;;2.67;;
21122;SDS011;10719;48.130;11.630;2024-02-04T03:19:25;6.63;;;2.60;;
21122;SDS011;10719;48.130;11.630;2024-02-04T03:21:51;8.15;;;3.25;;
21122;SDS011;10719;48.130;11.630;2024-02-04T03:24:16;5.90;;;2.70;;
21122;SDS011;10719;48.130;11.630;2024-02-04T03:26:42;7.15;;;3.03;;
21122;SDS011;10719;48.130;11.630;2024-02-04T03:29:07;5.97;;;2.58;;
21122;SDS011;10719;48.130;11.630;2024-02-04T03:31:33;8.02;;;3.00;;
21122;SDS011;10719;48.130;11.630;2024-02-04T03:33:59;5.93;;;2.65;;
21122;SDS011;10719;48.130;11.630;2024-02-04T03:36:24;6.80;;;2.85;;
21122;SDS011;10719;48.130;11.630;2024-02-04T03:38:50;8.43;;;2.40;;
21122;SDS011;10719;48.130;11.630;2024-02-04T03:41:16;7.20;;;2.55;;
21122;SDS011;10719;48.130;11.630;2024-02-04T03:43:42;7.35;;;2.83;;
21122;SDS011;10719;48.130;11.630;2024-02-04T03:46:08;6.45;;;2.53;;
21122;SDS011;10719;48.130;11.630;2024-02-04T03:48:37;6.95;;;2.55;;
21122;SDS011;10719;48.130;11.630;2024-02-04T03:51:03;6.45;;;2.42;;
21122;SDS011;10719;48.130;11.630;2024-02-04T03:53:28;6.57;;;2.63;;
21122;SDS011;10719;48.130;11.630;2024-02-04T03:55:54;6.40;;;2.47;;
21122;SDS011;10719;48.130;11.630;2024-02-04T03:58:20;5.32;;;2.08;;
21122;SDS011;10719;48.130;11.630;2024-02-04T04:00:54;6.80;;;2.50;;
21122;SDS011;10719;48.130;11.630;2024-02-04T04:03:22;5.18;;;2.03;;
21122;SDS011;10719;48.130;11.630;2024-02-04T04:05:48;5.80;;;1.95;;
21122;SDS011;10719;48.130;11.630;2024-02-04T04:08:14;5.53;;;1.95;;
21122;SDS011;10719;48.130;11.630;2024-02-04T04:10:40;7.32;;;2.40;;
21122;SDS011;10719;48.130;11.630;2024-02-04T04:13:05;5.10;;;2.00;;
21122;SDS011;10719;48.130;11.630;2024-02-04T04:15:31;6.40;;;2.00;;
21122;SDS011;10719;48.130;11.630;2024-02-04T04:17:56;4.03;;;1.65;;
21122;SDS011;10719;48.130;11.630;2024-02-04T04:20:22;3.83;;;1.85;;
21122;SDS011;10719;48.130;11.630;2024-02-04T04:22:47;5.32;;;2.20;;
21122;SDS011;10719;48.130;11.630;2024-02-04T04:25:13;6.10;;;2.10;;
21122;SDS011;10719;48.130;11.630;2024-02-04T04:27:39;5.50;;;1.90;;
21122;SDS011;10719;48.130;11.630;2024-02-04T04:30:05;5.53;;;2.42;;
21122;SDS011;10719;48.130;11.630;2024-02-04T04:32:31;6.15;;;1.85;;
21122;SDS011;10719;48.130;11.630;2024-02-04T04:34:57;4.78;;;1.85;;
21122;SDS011;10719;48.130;11.630;2024-02-04T04:37:23;5.15;;;2.03;;
21122;SDS011;10719;48.130;11.630;2024-02-04T04:39:48;6.88;;;2.05;;
21122;SDS011;10719;48.130;11.630;2024-02-04T04:42:14;5.57;;;2.03;;
21122;SDS011;10719;48.130;11.630;2024-02-04T04:44:39;5.50;;;2.22;;
21122;SDS011;10719;48.130;11.630;2024-02-04T04:47:05;5.22;;;2.13;;
21122;SDS011;10719;48.130;11.630;2024-02-04T04:49:31;5.13;;;2.10;;
21122;SDS011;10719;48.130;11.630;2024-02-04T04:51:56;4.32;;;1.67;;
21122;SDS011;10719;48.130;11.630;2024-02-04T04:54:22;4.05;;;1.38;;
21122;SDS011;10719;48.130;11.630;2024-02-04T04:56:48;4.22;;;1.67;;
21122;SDS011;10719;48.130;11.630;2024-02-04T04:59:14;4.95;;;1.65;;
21122;SDS011;10719;48.130;11.630;2024-02-04T05:01:50;2.45;;;1.27;;
21122;SDS011;10719;48.130;11.630;2024-02-04T05:04:16;4.30;;;1.88;;
21122;SDS011;10719;48.130;11.630;2024-02-04T05:06:43;4.45;;;1.67;;
21122;SDS011;10719;48.130;11.630;2024-02-04T05:09:09;5.10;;;1.48;;
21122;SDS011;10719;48.130;11.630;2024-02-04T05:11:34;3.97;;;1.52;;
21122;SDS011;10719;48.130;11.630;2024-02-04T05:14:00;4.75;;;1.52;;
21122;SDS011;10719;48.130;11.630;2024-02-04T05:16:26;7.32;;;1.88;;
21122;SDS011;10719;48.130;11.630;2024-02-04T05:18:52;3.78;;;1.50;;
21122;SDS011;10719;48.130;11.630;2024-02-04T05:21:17;3.65;;;1.55;;
21122;SDS011;10719;48.130;11.630;2024-02-04T05:23:43;6.15;;;1.60;;
21122;SDS011;10719;48.130;11.630;2024-02-04T05:26:08;3.40;;;1.35;;
21122;SDS011;10719;48.130;11.630;2024-02-04T05:28:34;6.55;;;1.50;;
21122;SDS011;10719;48.130;11.630;2024-02-04T05:31:00;5.07;;;1.60;;
21122;SDS011;10719;48.130;11.630;2024-02-04T05:33:27;3.55;;;1.65;;
21122;SDS011;10719;48.130;11.630;2024-02-04T05:35:52;2.83;;;1.35;;
21122;SDS011;10719;48.130;11.630;2024-02-04T05:38:18;5.43;;;1.20;;
21122;SDS011;10719;48.130;11.630;2024-02-04T05:40:44;5.05;;;1.58;;
21122;SDS011;10719;48.130;11.630;2024-02-04T05:43:09;5.38;;;1.88;;
21122;SDS011;10719;48.130;11.630;2024-02-04T05:45:36;3.25;;;1.13;;
21122;SDS011;10719;48.130;11.630;2024-02-04T05:48:03;3.47;;;1.67;;
21122;SDS011;10719;48.130;11.630;2024-02-04T05:50:29;7.22;;;1.88;;
21122;SDS011;10719;48.130;11.630;2024-02-04T05:52:55;4.05;;;1.83;;
21122;SDS011;10719;48.130;11.630;2024-02-04T05:55:20;6.30;;;2.20;;
21122;SDS011;10719;48.130;11.630;2024-02-04T05:57:46;6.30;;;1.98;;
21122;SDS011;10719;48.130;11.630;2024-02-04T06:00:12;6.07;;;1.90;;
21122;SDS011;10719;48.130;11.630;2024-02-04T06:02:38;4.35;;;1.77;;
21122;SDS011;10719;48.130;11.630;2024-02-04T06:05:03;5.53;;;1.88;;
21122;SDS011;10719;48.130;11.630;2024-02-04T06:07:29;6.88;;;2.25;;
21122;SDS011;10719;48.130;11.630;2024-02-04T06:09:55;5.78;;;2.03;;
21122;SDS011;10719;48.130;11.630;2024-02-04T06:12:21;9.20;;;2.78;;
21122;SDS011;10719;48.130;11.630;2024-02-04T06:14:47;5.78;;;2.08;;
21122;SDS011;10719;48.130;11.630;2024-02-04T06:17:12;6.35;;;2.20;;
21122;SDS011;10719;48.130;11.630;2024-02-04T06:19:38;6.93;;;2.25;;
21122;SDS011;10719;48.130;11.630;2024-02-04T06:22:04;6.10;;;2.33;;
21122;SDS011;10719;48.130;11.630;2024-02-04T06:24:29;5.95;;;2.65;;
21122;SDS011;10719;48.130;11.630;2024-02-04T06:26:55;8.60;;;2.20;;
21122;SDS011;10719;48.130;11.630;2024-02-04T06:29:21;6.90;;;2.45;;
21122;SDS011;10719;48.130;11.630;2024-02-04T06:31:46;5.18;;;2.28;;
21122;SDS011;10719;48.130;11.630;2024-02-04T06:34:12;7.50;;;2.83;;
21122;SDS011;10719;48.130;11.630;2024-02-04T06:36:38;6.93;;;2.35;;
21122;SDS011;10719;48.130;11.630;2024-02-04T06:39:07;7.78;;;2.40;;
21122;SDS011;10719;48.130;11.630;2024-02-04T06:41:33;7.22;;;2.00;;
21122;SDS011;10719;48.130;11.630;2024-02-04T06:43:59;7.80;;;2.17;;
21122;SDS011;10719;48.130;11.630;2024-02-04T06:46:28;3.58;;;1.50;;
21122;SDS011;10719;48.130;11.630;2024-02-04T06:48:54;6.10;;;2.47;;
21122;SDS011;10719;48.130;11.630;2024-02-04T06:51:19;7.60;;;2.47;;
21122;SDS011;10719;48.130;11.630;2024-02-04T06:53:45;5.68;;;2.25;;
21122;SDS011;10719;48.130;11.630;2024-02-04T06:56:11;6.07;;;2.40;;
21122;SDS011;10719;48.130;11.630;2024-02-04T06:58:37;7.40;;;2.22;;
21122;SDS011;10719;48.130;11.630;2024-02-04T07:01:03;9.02;;;2.83;;
21122;SDS011;10719;48.130;11.630;2024-02-04T07:03:29;5.90;;;2.28;;
21122;SDS011;10719;48.130;11.630;2024-02-04T07:05:55;7.40;;;2.30;;
21122;SDS011;10719;48.130;11.630;2024-02-04T07:08:22;8.45;;;2.83;;
21122;SDS011;10719;48.130;11.630;2024-02-04T07:10:48;8.10;;;2.70;;
21122;SDS011;10719;48.130;11.630;2024-02-04T07:13:14;9.32;;;2.90;;
21122;SDS011;10719;48.130;11.630;2024-02-04T07:15:40;10.98;;;3.30;;
21122;SDS011;10719;48.130;11.630;2024-02-04T07:18:05;6.97;;;3.10;;
21122;SDS011;10719;48.130;11.630;2024-02-04T07:20:31;11.50;;;3.33;;
21122;SDS011;10719;48.130;11.630;2024-02-04T07:22:56;11.10;;;4.00;;
21122;SDS011;10719;48.130;11.630;2024-02-04T07:25:22;10.20;;;3.42;;
21122;SDS011;10719;48.130;11.630;2024-02-04T07:27:48;9.95;;;3.63;;
21122;SDS011;10719;48.130;11.630;2024-02-04T07:30:14;9.35;;;3.33;;
21122;SDS011;10719;48.130;11.630;2024-02-04T07:32:39;10.27;;;4.10;;
21122;SDS011;10719;48.130;11.630;2024-02-04T07:35:05;6.93;;;2.83;;
21122;SDS011;10719;48.130;11.630;2024-02-04T07:37:31;10.02;;;3.85;;
21122;SDS011;10719;48.130;11.630;2024-02-04T07:39:57;8.55;;;3.72;;
21122;SDS011;10719;48.130;11.630;2024-02-04T07:42:23;9.63;;;3.80;;
21122;SDS011;10719;48.130;11.630;2024-02-04T07:44:49;11.77;;;3.80;;
21122;SDS011;10719;48.130;11.630;2024-02-04T07:47:15;12.40;;;3.72;;
21122;SDS011;10719;48.130;11.630;2024-02-04T07:49:41;11.68;;;3.90;;
21122;SDS011;10719;48.130;11.630;2024-02-04T07:52:06;12.73;;;3.45;;
21122;SDS011;10719;48.130;11.630;2024-02-04T07:54:32;11.65;;;3.80;;
21122;SDS011;10719;48.130;11.630;2024-02-04T07:56:57;11.38;;;3.28;;
21122;SDS011;10719;48.130;11.630;2024-02-04T07:59:24;9.80;;;3.60;;
21122;SDS011;10719;48.130;11.630;2024-02-04T08:01:49;9.32;;;3.50;;
21122;SDS011;10719;48.130;11.630;2024-02-04T08:04:15;9.13;;;3.50;;
21122;SDS011;10719;48.130;11.630;2024-02-04T08:06:40;10.23;;;3.35;;
21122;SDS011;10719;48.130;11.630;2024-02-04T08:09:06;13.40;;;4.05;;
21122;SDS011;10719;48.130;11.630;2024-02-04T08:11:32;6.20;;;2.60;;
21122;SDS011;10719;48.130;11.630;2024-02-04T08:13:57;8.88;;;3.22;;
21122;SDS011;10719;48.130;11.630;2024-02-04T08:16:23;7.60;;;2.75;;
21122;SDS011;10719;48.130;11.630;2024-02-04T08:18:49;9.60;;;3.30;;
21122;SDS011;10719;48.130;11.630;2024-02-04T08:21:15;8.57;;;3.10;;
21122;SDS011;10719;48.130;11.630;2024-02-04T08:23:41;7.60;;;2.42;;
21122;SDS011;10719;48.130;11.630;2024-02-04T08:26:06;9.50;;;3.33;;
21122;SDS011;10719;48.130;11.630;2024-02-04T08:28:32;8.10;;;2.65;;
21122;SDS011;10719;48.130;11.630;2024-02-04T08:30:58;9.02;;;3.22;;
21122;SDS011;10719;48.130;11.630;2024-02-04T08:33:23;8.35;;;2.28;;
21122;SDS011;10719;48.130;11.630;2024-02-04T08:35:49;7.05;;;2.53;;
21122;SDS011;10719;48.130;11.630;2024-02-04T08:38:14;14.63;;;3.05;;
21122;SDS011;10719;48.130;11.630;2024-02-04T08:40:40;5.75;;;1.95;;
21122;SDS011;10719;48.130;11.630;2024-02-04T08:43:05;7.13;;;2.38;;
21122;SDS011;10719;48.130;11.630;2024-02-04T08:45:31;12.05;;;2.30;;
21122;SDS011;10719;48.130;11.630;2024-02-04T08:47:56;6.63;;;2.42;;
21122;SDS011;10719;48.130;11.630;2024-02-04T08:50:22;6.93;;;2.55;;
21122;SDS011;10719;48.130;11.630;2024-02-04T08:52:48;8.13;;;2.08;;
21122;SDS011;10719;48.130;11.630;2024-02-04T08:55:13;6.10;;;2.28;;
21122;SDS011;10719;48.130;11.630;2024-02-04T08:57:39;8.45;;;2.20;;
21122;SDS011;10719;48.130;11.630;2024-02-04T09:00:05;6.85;;;2.17;;
21122;SDS011;10719;48.130;11.630;2024-02-04T09:02:36;8.82;;;1.92;;
21122;SDS011;10719;48.130;11.630;2024-02-04T09:05:03;5.18;;;2.17;;
21122;SDS011;10719;48.130;11.630;2024-02-04T09:07:29;11.77;;;2.72;;
21122;SDS011;10719;48.130;11.630;2024-02-04T09:09:56;8.40;;;2.17;;
21122;SDS011;10719;48.130;11.630;2024-02-04T09:12:22;5.25;;;2.30;;
21122;SDS011;10719;48.130;11.630;2024-02-04T09:14:47;5.93;;;2.15;;
21122;SDS011;10719;48.130;11.630;2024-02-04T09:17:13;3.80;;;1.65;;
21122;SDS011;10719;48.130;11.630;2024-02-04T09:19:39;3.47;;;1.58;;
21122;SDS011;10719;48.130;11.630;2024-02-04T09:22:05;4.13;;;1.73;;
21122;SDS011;10719;48.130;11.630;2024-02-04T09:24:31;5.82;;;1.60;;
21122;SDS011;10719;48.130;11.630;2024-02-04T09:26:57;8.55;;;2.10;;
21122;SDS011;10719;48.130;11.630;2024-02-04T09:29:23;8.23;;;2.28;;
21122;SDS011;10719;48.130;11.630;2024-02-04T09:31:49;5.72;;;1.92;;
21122;SDS011;10719;48.130;11.630;2024-02-04T09:34:16;8.70;;;2.70;;
21122;SDS011;10719;48.130;11.630;2024-02-04T09:36:41;9.15;;;2.60;;
21122;SDS011;10719;48.130;11.630;2024-02-04T09:39:08;11.93;;;2.22;;
21122;SDS011;10719;48.130;11.630;2024-02-04T09:41:34;7.82;;;2.53;;
21122;SDS011;10719;48.130;11.630;2024-02-04T09:43:59;6.05;;;2.10;;
21122;SDS011;10719;48.130;11.630;2024-02-04T09:46:28;7.57;;;2.55;;
21122;SDS011;10719;48.130;11.630;2024-02-04T09:48:54;7.15;;;2.58;;
21122;SDS011;10719;48.130;11.630;2024-02-04T09:51:21;8.07;;;2.72;;
21122;SDS011;10719;48.130;11.630;2024-02-04T09:53:49;8.13;;;2.65;;
21122;SDS011;10719;48.130;11.630;2024-02-04T09:56:18;11.02;;;2.50;;
21122;SDS011;10719;48.130;11.630;2024-02-04T09:58:44;6.35;;;2.22;;
21122;SDS011;10719;48.130;11.630;2024-02-04T10:01:10;9.68;;;2.58;;
21122;SDS011;10719;48.130;11.630;2024-02-04T10:03:37;7.85;;;3.20;;
21122;SDS011;10719;48.130;11.630;2024-02-04T10:06:02;8.10;;;2.70;;
21122;SDS011;10719;48.130;11.630;2024-02-04T10:08:28;8.27;;;2.97;;
21122;SDS011;10719;48.130;11.630;2024-02-04T10:10:54;11.48;;;3.22;;
21122;SDS011;10719;48.130;11.630;2024-02-04T10:13:20;5.68;;;2.13;;
21122;SDS011;10719;48.130;11.630;2024-02-04T10:15:47;7.50;;;2.83;;
21122;SDS011;10719;48.130;11.630;2024-02-04T10:18:13;10.02;;;2.55;;
21122;SDS011;10719;48.130;11.630;2024-02-04T10:20:38;10.38;;;3.50;;
21122;SDS011;10719;48.130;11.630;2024-02-04T10:23:04;6.25;;;2.55;;
21122;SDS011;10719;48.130;11.630;2024-02-04T10:25:30;7.03;;;2.50;;
21122;SDS011;10719;48.130;11.630;2024-02-04T10:27:56;9.07;;;2.92;;
21122;SDS011;10719;48.130;11.630;2024-02-04T10:30:23;15.07;;;3.35;;
21122;SDS011;10719;48.130;11.630;2024-02-04T10:32:52;8.10;;;2.72;;
21122;SDS011;10719;48.130;11.630;2024-02-04T10:35:20;8.82;;;2.85;;
21122;SDS011;10719;48.130;11.630;2024-02-04T10:37:48;10.93;;;2.75;;
21122;SDS011;10719;48.130;11.630;2024-02-04T10:40:14;8.55;;;3.17;;
21122;SDS011;10719;48.130;11.630;2024-02-04T10:42:40;8.65;;;2.95;;
21122;SDS011;10719;48.130;11.630;2024-02-04T10:45:08;6.07;;;2.63;;
21122;SDS011;10719;48.130;11.630;2024-02-04T10:47:37;8.50;;;2.92;;
21122;SDS011;10719;48.130;11.630;2024-02-04T10:50:04;10.38;;;3.05;;
21122;SDS011;10719;48.130;11.630;2024-02-04T10:52:39;9.32;;;2.70;;
21122;SDS011;10719;48.130;11.630;2024-02-04T10:55:06;7.88;;;2.95;;
21122;SDS011;10719;48.130;11.630;2024-02-04T10:57:34;6.70;;;2.50;;
21122;SDS011;10719;48.130;11.630;2024-02-04T11:00:01;6.32;;;2.55;;
21122;SDS011;10719;48.130;11.630;2024-02-04T11:02:32;11.02;;;3.17;;
21122;SDS011;10719;48.130;11.630;2024-02-04T11:05:00;6.95;;;2.30;;
21122;SDS011;10719;48.130;11.630;2024-02-04T11:07:26;9.27;;;2.80;;
21122;SDS011;10719;48.130;11.630;2024-02-04T11:09:56;7.50;;;2.40;;
21122;SDS011;10719;48.130;11.630;2024-02-04T11:12:22;8.60;;;2.03;;
21122;SDS011;10719;48.130;11.630;2024-02-04T11:14:50;5.68;;;2.00;;
21122;SDS011;10719;48.130;11.630;2024-02-04T11:28:16;5.32;;;1.33;;
21122;SDS011;10719;48.130;11.630;2024-02-04T11:30:44;5.22;;;2.10;;
21122;SDS011;10719;48.130;11.630;2024-02-04T11:33:10;7.95;;;2.00;;
21122;SDS011;10719;48.130;11.630;2024-02-04T11:35:37;6.97;;;1.52;;
21122;SDS011;10719;48.130;11.630;2024-02-04T11:38:03;3.88;;;1.48;;
21122;SDS011;10719;48.130;11.630;2024-02-04T11:40:35;3.63;;;1.40;;
21122;SDS011;10719;48.130;11.630;2024-02-04T11:43:03;7.20;;;1.70;;
21122;SDS011;10719;48.130;11.630;2024-02-04T11:45:41;5.03;;;1.63;;
21122;SDS011;10719;48.130;11.630;2024-02-04T11:48:08;5.03;;;1.35;;
21122;SDS011;10719;48.130;11.630;2024-02-04T11:50:37;4.05;;;1.23;;
21122;SDS011;10719;48.130;11.630;2024-02-04T11:53:05;4.70;;;1.40;;
21122;SDS011;10719;48.130;11.630;2024-02-04T11:55:35;4.30;;;1.42;;
21122;SDS011;10719;48.130;11.630;2024-02-04T11:58:01;5.53;;;1.45;;
21122;SDS011;10719;48.130;11.630;2024-02-04T12:00:31;1.60;;;0.90;;
21122;SDS011;10719;48.130;11.630;2024-02-04T12:03:01;3.17;;;0.93;;
21122;SDS011;10719;48.130;11.630;2024-02-04T12:05:31;6.38;;;1.42;;
21122;SDS011;10719;48.130;11.630;2024-02-04T12:07:59;2.03;;;1.00;;
21122;SDS011;10719;48.130;11.630;2024-02-04T12:10:26;6.18;;;1.17;;
21122;SDS011;10719;48.130;11.630;2024-02-04T12:12:52;3.55;;;0.98;;
21122;SDS011;10719;48.130;11.630;2024-02-04T12:15:18;6.88;;;1.35;;
21122;SDS011;10719;48.130;11.630;2024-02-04T12:17:44;5.63;;;1.67;;
21122;SDS011;10719;48.130;11.630;2024-02-04T12:20:10;7.88;;;1.42;;
21122;SDS011;10719;48.130;11.630;2024-02-04T12:22:35;1.85;;;0.90;;
21122;SDS011;10719;48.130;11.630;2024-02-04T12:25:02;3.22;;;1.10;;
21122;SDS011;10719;48.130;11.630;2024-02-04T12:27:28;2.95;;;1.33;;
21122;SDS011;10719;48.130;11.630;2024-02-04T12:29:54;4.82;;;1.10;;
21122;SDS011;10719;48.130;11.630;2024-02-04T12:32:20;4.80;;;1.15;;
21122;SDS011;10719;48.130;11.630;2024-02-04T12:34:49;3.45;;;1.10;;
21122;SDS011;10719;48.130;11.630;2024-02-04T12:37:19;3.50;;;1.30;;
21122;SDS011;10719;48.130;11.630;2024-02-04T12:39:45;2.00;;;0.95;;
21122;SDS011;10719;48.130;11.630;2024-02-04T12:42:14;3.72;;;1.67;;
21122;SDS011;10719;48.130;11.630;2024-02-04T12:44:44;3.20;;;1.02;;
21122;SDS011;10719;48.130;11.630;2024-02-04T12:47:10;3.28;;;1.00;;
21122;SDS011;10719;48.130;11.630;2024-02-04T12:49:36;5.65;;;1.38;;
21122;SDS011;10719;48.130;11.630;2024-02-04T12:52:05;4.88;;;1.10;;
21122;SDS011;10719;48.130;11.630;2024-02-04T12:54:39;3.22;;;1.13;;
21122;SDS011;10719;48.130;11.630;2024-02-04T12:57:08;3.78;;;1.17;;
21122;SDS011;10719;48.130;11.630;2024-02-04T12:59:36;3.22;;;1.15;;
21122;SDS011;10719;48.130;11.630;2024-02-04T13:02:03;3.25;;;1.48;;
21122;SDS011;10719;48.130;11.630;2024-02-04T13:04:37;7.53;;;1.58;;
21122;SDS011;10719;48.130;11.630;2024-02-04T13:07:07;2.47;;;1.30;;
21122;SDS011;10719;48.130;11.630;2024-02-04T13:09:41;3.25;;;1.10;;
21122;SDS011;10719;48.130;11.630;2024-02-04T13:12:10;4.97;;;1.60;;
21122;SDS011;10719;48.130;11.630;2024-02-04T13:14:39;6.40;;;1.80;;
21122;SDS011;10719;48.130;11.630;2024-02-04T13:17:06;7.68;;;1.40;;
21122;SDS011;10719;48.130;11.630;2024-02-04T13:19:35;5.88;;;1.48;;
21122;SDS011;10719;48.130;11.630;2024-02-04T13:22:02;9.45;;;1.42;;
21122;SDS011;10719;48.130;11.630;2024-02-04T13:24:29;4.78;;;1.40;;
21122;SDS011;10719;48.130;11.630;2024-02-04T13:26:55;7.35;;;1.42;;
21122;SDS011;10719;48.130;11.630;2024-02-04T13:29:21;7.43;;;1.55;;
21122;SDS011;10719;48.130;11.630;2024-02-04T13:31:46;8.30;;;1.20;;
21122;SDS011;10719;48.130;11.630;2024-02-04T13:34:12;2.67;;;1.10;;
21122;SDS011;10719;48.130;11.630;2024-02-04T13:36:38;2.80;;;1.17;;
21122;SDS011;10719;48.130;11.630;2024-02-04T13:39:03;3.90;;;1.20;;
21122;SDS011;10719;48.130;11.630;2024-02-04T13:41:30;3.95;;;1.17;;
21122;SDS011;10719;48.130;11.630;2024-02-04T13:43:56;2.85;;;1.25;;
21122;SDS011;10719;48.130;11.630;2024-02-04T13:46:23;3.50;;;1.20;;
21122;SDS011;10719;48.130;11.630;2024-02-04T13:48:49;5.05;;;1.15;;
21122;SDS011;10719;48.130;11.630;2024-02-04T13:51:14;5.30;;;1.27;;
21122;SDS011;10719;48.130;11.630;2024-02-04T13:53:41;2.92;;;1.40;;
21122;SDS011;10719;48.130;11.630;2024-02-04T13:56:07;7.38;;;1.25;;
21122;SDS011;10719;48.130;11.630;2024-02-04T13:58:32;4.55;;;1.20;;
21122;SDS011;10719;48.130;11.630;2024-02-04T14:00:58;3.80;;;1.00;;
21122;SDS011;10719;48.130;11.630;2024-02-04T14:03:24;2.35;;;0.70;;
21122;SDS011;10719;48.130;11.630;2024-02-04T14:05:50;3.33;;;1.10;;
21122;SDS011;10719;48.130;11.630;2024-02-04T14:08:16;2.97;;;1.30;;
21122;SDS011;10719;48.130;11.630;2024-02-04T14:10:41;4.20;;;1.30;;
21122;SDS011;10719;48.130;11.630;2024-02-04T14:13:07;5.18;;;1.48;;
21122;SDS011;10719;48.130;11.630;2024-02-04T14:15:33;3.72;;;1.30;;
21122;SDS011;10719;48.130;11.630;2024-02-04T14:17:59;4.80;;;1.35;;
21122;SDS011;10719;48.130;11.630;2024-02-04T14:20:25;4.43;;;1.27;;
21122;SDS011;10719;48.130;11.630;2024-02-04T14:22:51;3.67;;;1.27;;
21122;SDS011;10719;48.130;11.630;2024-02-04T14:25:17;3.33;;;1.10;;
21122;SDS011;10719;48.130;11.630;2024-02-04T14:27:43;2.70;;;1.10;;
21122;SDS011;10719;48.130;11.630;2024-02-04T14:30:09;2.88;;;1.10;;
21122;SDS011;10719;48.130;11.630;2024-02-04T14:32:35;6.97;;;1.48;;
21122;SDS011;10719;48.130;11.630;2024-02-04T14:35:01;5.03;;;1.50;;
21122;SDS011;10719;48.130;11.630;2024-02-04T14:37:29;4.22;;;1.58;;
21122;SDS011;10719;48.130;11.630;2024-02-04T14:39:57;3.28;;;1.15;;
21122;SDS011;10719;48.130;11.630;2024-02-04T14:42:25;3.75;;;1.20;;
21122;SDS011;10719;48.130;11.630;2024-02-04T14:44:51;3.83;;;1.42;;